sensor_id;sensor_type;location;lat;lon;timestamp;temperature;humidity
38936;DHT22;66589;47.458;9.644;2023-03-01T00:02:00;3.40;72.60
38936;DHT22;66589;47.458;9.644;2023-03-01T00:04:26;3.40;73.00
38936;DHT22;66589;47.458;9.644;2023-03-01T00:06:53;3.40;72.80
38936;DHT22;66589;47.458;9.644;2023-03-01T00:09:18;3.40;73.10
38936;DHT22;66589;47.458;9.644;2023-03-01T00:11:44;3.30;73.00
38936;DHT22;66589;47.458;9.644;2023-03-01T00:14:10;3.30;72.90
38936;DHT22;66589;47.458;9.644;2023-03-01T00:16:38;3.30;72.80
38936;DHT22;66589;47.458;9.644;2023-03-01T00:19:05;3.30;73.80
38936;DHT22;66589;47.458;9.644;2023-03-01T00:21:31;3.30;73.40
38936;DHT22;66589;47.458;9.644;2023-03-01T00:23:57;3.30;72.80
38936;DHT22;66589;47.458;9.644;2023-03-01T00:26:24;3.30;72.90
38936;DHT22;66589;47.458;9.644;2023-03-01T00:28:51;3.40;73.30
38936;DHT22;66589;47.458;9.644;2023-03-01T00:31:20;3.40;72.90
38936;DHT22;66589;47.458;9.644;2023-03-01T00:33:46;3.30;72.60
38936;DHT22;66589;47.458;9.644;2023-03-01T00:36:14;3.30;72.50
38936;DHT22;66589;47.458;9.644;2023-03-01T00:38:42;3.20;72.60
38936;DHT22;66589;47.458;9.644;2023-03-01T00:41:09;3.30;73.00
38936;DHT22;66589;47.458;9.644;2023-03-01T00:43:35;3.20;72.80
38936;DHT22;66589;47.458;9.644;2023-03-01T00:46:07;3.20;73.10
38936;DHT22;66589;47.458;9.644;2023-03-01T00:48:33;3.20;73.10
38936;DHT22;66589;47.458;9.644;2023-03-01T00:51:07;3.20;73.80
38936;DHT22;66589;47.458;9.644;2023-03-01T00:53:33;3.10;74.00
38936;DHT22;66589;47.458;9.644;2023-03-01T00:55:59;3.10;73.30
38936;DHT22;66589;47.458;9.644;2023-03-01T00:58:25;3.10;73.70
38936;DHT22;66589;47.458;9.644;2023-03-01T01:00:51;3.10;74.10
38936;DHT22;66589;47.458;9.644;2023-03-01T01:03:18;3.10;73.60
38936;DHT22;66589;47.458;9.644;2023-03-01T01:05:44;3.00;73.90
38936;DHT22;66589;47.458;9.644;2023-03-01T01:08:09;3.00;73.60
38936;DHT22;66589;47.458;9.644;2023-03-01T01:10:35;3.00;73.70
38936;DHT22;66589;47.458;9.644;2023-03-01T01:13:01;3.00;73.90
38936;DHT22;66589;47.458;9.644;2023-03-01T01:15:27;3.00;73.60
38936;DHT22;66589;47.458;9.644;2023-03-01T01:17:53;3.00;73.50
38936;DHT22;66589;47.458;9.644;2023-03-01T01:20:18;3.00;73.70
38936;DHT22;66589;47.458;9.644;2023-03-01T01:22:44;3.00;73.50
38936;DHT22;66589;47.458;9.644;2023-03-01T01:25:10;3.10;73.50
38936;DHT22;66589;47.458;9.644;2023-03-01T01:27:36;3.00;73.50
38936;DHT22;66589;47.458;9.644;2023-03-01T01:30:03;3.00;73.50
38936;DHT22;66589;47.458;9.644;2023-03-01T01:32:29;3.00;73.60
38936;DHT22;66589;47.458;9.644;2023-03-01T01:34:55;3.00;73.50
38936;DHT22;66589;47.458;9.644;2023-03-01T01:37:21;3.00;73.40
38936;DHT22;66589;47.458;9.644;2023-03-01T01:39:46;3.00;73.40
38936;DHT22;66589;47.458;9.644;2023-03-01T01:42:16;3.00;73.70
38936;DHT22;66589;47.458;9.644;2023-03-01T01:44:45;3.00;73.40
38936;DHT22;66589;47.458;9.644;2023-03-01T01:47:17;3.00;73.50
38936;DHT22;66589;47.458;9.644;2023-03-01T01:49:53;3.00;73.40
38936;DHT22;66589;47.458;9.644;2023-03-01T01:52:31;3.10;73.20
38936;DHT22;66589;47.458;9.644;2023-03-01T01:55:01;3.00;73.20
38936;DHT22;66589;47.458;9.644;2023-03-01T01:57:53;3.00;73.40
38936;DHT22;66589;47.458;9.644;2023-03-01T02:00:21;3.10;73.40
38936;DHT22;66589;47.458;9.644;2023-03-01T02:02:49;3.10;73.30
38936;DHT22;66589;47.458;9.644;2023-03-01T02:05:46;3.00;73.20
38936;DHT22;66589;47.458;9.644;2023-03-01T02:08:14;3.00;73.30
38936;DHT22;66589;47.458;9.644;2023-03-01T02:10:41;3.00;73.40
38936;DHT22;66589;47.458;9.644;2023-03-01T02:13:07;3.00;73.60
38936;DHT22;66589;47.458;9.644;2023-03-01T02:15:35;3.00;73.50
38936;DHT22;66589;47.458;9.644;2023-03-01T02:18:02;3.00;73.60
38936;DHT22;66589;47.458;9.644;2023-03-01T02:23:14;3.00;73.10
38936;DHT22;66589;47.458;9.644;2023-03-01T02:26:20;3.00;73.00
38936;DHT22;66589;47.458;9.644;2023-03-01T02:28:46;2.90;73.30
38936;DHT22;66589;47.458;9.644;2023-03-01T02:31:18;2.80;73.60
38936;DHT22;66589;47.458;9.644;2023-03-01T02:34:03;2.80;73.80
38936;DHT22;66589;47.458;9.644;2023-03-01T02:36:37;2.80;74.30
38936;DHT22;66589;47.458;9.644;2023-03-01T02:39:06;2.90;74.20
38936;DHT22;66589;47.458;9.644;2023-03-01T02:41:35;2.90;73.60
38936;DHT22;66589;47.458;9.644;2023-03-01T02:44:03;2.90;74.20
38936;DHT22;66589;47.458;9.644;2023-03-01T02:46:28;2.90;73.80
38936;DHT22;66589;47.458;9.644;2023-03-01T02:48:58;2.90;73.50
38936;DHT22;66589;47.458;9.644;2023-03-01T02:56:33;2.70;74.10
38936;DHT22;66589;47.458;9.644;2023-03-01T02:58:59;2.70;73.80
38936;DHT22;66589;47.458;9.644;2023-03-01T03:01:27;2.70;74.30
38936;DHT22;66589;47.458;9.644;2023-03-01T03:04:03;2.70;74.30
38936;DHT22;66589;47.458;9.644;2023-03-01T03:06:29;2.70;74.10
38936;DHT22;66589;47.458;9.644;2023-03-01T03:08:55;2.80;74.00
38936;DHT22;66589;47.458;9.644;2023-03-01T03:11:20;2.70;74.20
38936;DHT22;66589;47.458;9.644;2023-03-01T03:13:46;2.70;74.00
38936;DHT22;66589;47.458;9.644;2023-03-01T03:16:14;2.60;74.50
38936;DHT22;66589;47.458;9.644;2023-03-01T03:18:39;2.70;74.30
38936;DHT22;66589;47.458;9.644;2023-03-01T03:21:09;2.70;74.30
38936;DHT22;66589;47.458;9.644;2023-03-01T03:23:36;2.70;74.10
38936;DHT22;66589;47.458;9.644;2023-03-01T03:26:04;2.70;74.10
38936;DHT22;66589;47.458;9.644;2023-03-01T03:28:30;2.70;74.30
38936;DHT22;66589;47.458;9.644;2023-03-01T03:30:56;2.70;74.20
38936;DHT22;66589;47.458;9.644;2023-03-01T03:33:22;2.70;74.00
38936;DHT22;66589;47.458;9.644;2023-03-01T03:35:49;2.70;73.70
38936;DHT22;66589;47.458;9.644;2023-03-01T03:38:17;2.80;73.90
38936;DHT22;66589;47.458;9.644;2023-03-01T03:41:10;2.80;73.80
38936;DHT22;66589;47.458;9.644;2023-03-01T03:43:38;2.70;73.70
38936;DHT22;66589;47.458;9.644;2023-03-01T03:46:04;2.70;73.70
38936;DHT22;66589;47.458;9.644;2023-03-01T03:48:44;2.70;73.90
38936;DHT22;66589;47.458;9.644;2023-03-01T03:51:15;2.70;74.10
38936;DHT22;66589;47.458;9.644;2023-03-01T03:53:41;2.80;74.10
38936;DHT22;66589;47.458;9.644;2023-03-01T03:56:07;2.90;73.80
38936;DHT22;66589;47.458;9.644;2023-03-01T03:58:33;2.90;73.50
38936;DHT22;66589;47.458;9.644;2023-03-01T04:00:59;2.80;73.50
38936;DHT22;66589;47.458;9.644;2023-03-01T04:03:27;2.80;73.40
38936;DHT22;66589;47.458;9.644;2023-03-01T04:05:53;2.70;73.70
38936;DHT22;66589;47.458;9.644;2023-03-01T04:08:20;2.70;73.70
38936;DHT22;66589;47.458;9.644;2023-03-01T04:10:48;2.70;74.10
38936;DHT22;66589;47.458;9.644;2023-03-01T04:13:16;2.70;73.80
38936;DHT22;66589;47.458;9.644;2023-03-01T04:15:44;2.70;73.80
38936;DHT22;66589;47.458;9.644;2023-03-01T04:18:13;2.70;73.90
38936;DHT22;66589;47.458;9.644;2023-03-01T04:20:39;2.70;74.10
38936;DHT22;66589;47.458;9.644;2023-03-01T04:23:10;2.70;74.20
38936;DHT22;66589;47.458;9.644;2023-03-01T04:28:11;2.70;74.60
38936;DHT22;66589;47.458;9.644;2023-03-01T04:30:38;2.70;74.20
38936;DHT22;66589;47.458;9.644;2023-03-01T04:33:06;2.80;73.90
38936;DHT22;66589;47.458;9.644;2023-03-01T04:35:32;2.70;73.90
38936;DHT22;66589;47.458;9.644;2023-03-01T04:37:58;2.70;74.20
38936;DHT22;66589;47.458;9.644;2023-03-01T04:40:24;2.80;74.00
38936;DHT22;66589;47.458;9.644;2023-03-01T04:42:50;2.80;74.10
38936;DHT22;66589;47.458;9.644;2023-03-01T04:45:16;2.70;73.80
38936;DHT22;66589;47.458;9.644;2023-03-01T04:47:43;2.80;74.00
38936;DHT22;66589;47.458;9.644;2023-03-01T04:50:11;2.80;74.00
38936;DHT22;66589;47.458;9.644;2023-03-01T04:52:37;2.80;73.60
38936;DHT22;66589;47.458;9.644;2023-03-01T04:55:04;2.80;73.70
38936;DHT22;66589;47.458;9.644;2023-03-01T04:57:30;2.70;73.30
38936;DHT22;66589;47.458;9.644;2023-03-01T04:59:55;2.70;73.80
38936;DHT22;66589;47.458;9.644;2023-03-01T05:02:21;2.70;73.10
38936;DHT22;66589;47.458;9.644;2023-03-01T05:04:47;2.60;73.10
38936;DHT22;66589;47.458;9.644;2023-03-01T05:07:12;2.60;73.50
38936;DHT22;66589;47.458;9.644;2023-03-01T05:09:45;2.60;73.70
38936;DHT22;66589;47.458;9.644;2023-03-01T05:12:12;2.60;73.70
38936;DHT22;66589;47.458;9.644;2023-03-01T05:14:37;2.60;73.40
38936;DHT22;66589;47.458;9.644;2023-03-01T05:17:04;2.70;73.40
38936;DHT22;66589;47.458;9.644;2023-03-01T05:19:30;2.60;73.40
38936;DHT22;66589;47.458;9.644;2023-03-01T05:21:57;2.70;73.20
38936;DHT22;66589;47.458;9.644;2023-03-01T05:24:34;2.60;73.60
38936;DHT22;66589;47.458;9.644;2023-03-01T05:27:00;2.60;73.60
38936;DHT22;66589;47.458;9.644;2023-03-01T05:29:28;2.60;73.40
38936;DHT22;66589;47.458;9.644;2023-03-01T05:31:56;2.60;73.40
38936;DHT22;66589;47.458;9.644;2023-03-01T05:34:31;2.70;73.70
38936;DHT22;66589;47.458;9.644;2023-03-01T05:36:58;2.60;73.50
38936;DHT22;66589;47.458;9.644;2023-03-01T05:39:26;2.70;73.30
38936;DHT22;66589;47.458;9.644;2023-03-01T05:41:52;2.70;73.10
38936;DHT22;66589;47.458;9.644;2023-03-01T05:44:19;2.70;73.00
38936;DHT22;66589;47.458;9.644;2023-03-01T05:46:44;2.70;72.70
38936;DHT22;66589;47.458;9.644;2023-03-01T05:49:11;2.70;72.80
38936;DHT22;66589;47.458;9.644;2023-03-01T05:51:39;2.70;72.60
38936;DHT22;66589;47.458;9.644;2023-03-01T05:54:04;2.60;72.60
38936;DHT22;66589;47.458;9.644;2023-03-01T05:56:33;2.70;72.70
38936;DHT22;66589;47.458;9.644;2023-03-01T05:58:59;2.70;72.00
38936;DHT22;66589;47.458;9.644;2023-03-01T06:01:25;2.70;72.30
38936;DHT22;66589;47.458;9.644;2023-03-01T06:03:51;2.70;72.00
38936;DHT22;66589;47.458;9.644;2023-03-01T06:06:17;2.70;72.10
38936;DHT22;66589;47.458;9.644;2023-03-01T06:08:42;2.70;71.90
38936;DHT22;66589;47.458;9.644;2023-03-01T06:11:08;2.80;72.10
38936;DHT22;66589;47.458;9.644;2023-03-01T06:13:34;2.80;72.50
38936;DHT22;66589;47.458;9.644;2023-03-01T06:15:59;2.80;73.10
38936;DHT22;66589;47.458;9.644;2023-03-01T06:18:25;2.80;72.00
38936;DHT22;66589;47.458;9.644;2023-03-01T06:20:54;2.80;71.90
38936;DHT22;66589;47.458;9.644;2023-03-01T06:23:21;2.80;72.50
38936;DHT22;66589;47.458;9.644;2023-03-01T06:25:47;2.70;72.50
38936;DHT22;66589;47.458;9.644;2023-03-01T06:28:12;2.80;72.10
38936;DHT22;66589;47.458;9.644;2023-03-01T06:30:38;2.90;72.20
38936;DHT22;66589;47.458;9.644;2023-03-01T06:33:04;3.00;71.80
38936;DHT22;66589;47.458;9.644;2023-03-01T06:35:30;3.00;71.50
38936;DHT22;66589;47.458;9.644;2023-03-01T06:37:57;2.90;71.80
38936;DHT22;66589;47.458;9.644;2023-03-01T06:40:23;3.00;71.20
38936;DHT22;66589;47.458;9.644;2023-03-01T06:42:50;2.90;71.30
38936;DHT22;66589;47.458;9.644;2023-03-01T06:45:17;3.00;71.30
38936;DHT22;66589;47.458;9.644;2023-03-01T06:47:43;2.90;71.50
38936;DHT22;66589;47.458;9.644;2023-03-01T06:50:10;2.90;71.70
38936;DHT22;66589;47.458;9.644;2023-03-01T06:52:36;3.00;72.20
38936;DHT22;66589;47.458;9.644;2023-03-01T06:55:01;3.00;72.20
38936;DHT22;66589;47.458;9.644;2023-03-01T06:57:28;3.10;71.90
38936;DHT22;66589;47.458;9.644;2023-03-01T06:59:53;3.10;72.00
38936;DHT22;66589;47.458;9.644;2023-03-01T07:02:19;3.20;71.60
38936;DHT22;66589;47.458;9.644;2023-03-01T07:04:45;3.20;71.00
38936;DHT22;66589;47.458;9.644;2023-03-01T07:07:11;3.20;70.60
38936;DHT22;66589;47.458;9.644;2023-03-01T07:09:37;3.30;71.10
38936;DHT22;66589;47.458;9.644;2023-03-01T07:12:03;3.20;70.70
38936;DHT22;66589;47.458;9.644;2023-03-01T07:14:28;3.30;71.00
38936;DHT22;66589;47.458;9.644;2023-03-01T07:16:54;3.30;70.60
38936;DHT22;66589;47.458;9.644;2023-03-01T07:19:21;3.30;70.80
38936;DHT22;66589;47.458;9.644;2023-03-01T07:21:46;3.30;70.60
38936;DHT22;66589;47.458;9.644;2023-03-01T07:24:12;3.30;71.10
38936;DHT22;66589;47.458;9.644;2023-03-01T07:26:38;3.40;70.50
38936;DHT22;66589;47.458;9.644;2023-03-01T07:29:05;3.40;70.80
38936;DHT22;66589;47.458;9.644;2023-03-01T07:31:31;3.50;70.20
38936;DHT22;66589;47.458;9.644;2023-03-01T07:33:57;3.50;70.40
38936;DHT22;66589;47.458;9.644;2023-03-01T07:36:23;3.50;70.40
38936;DHT22;66589;47.458;9.644;2023-03-01T07:38:50;3.50;69.90
38936;DHT22;66589;47.458;9.644;2023-03-01T07:41:15;3.50;69.90
38936;DHT22;66589;47.458;9.644;2023-03-01T07:43:41;3.50;69.70
38936;DHT22;66589;47.458;9.644;2023-03-01T07:46:07;3.40;69.70
38936;DHT22;66589;47.458;9.644;2023-03-01T07:48:33;3.50;70.10
38936;DHT22;66589;47.458;9.644;2023-03-01T07:51:03;3.60;69.30
38936;DHT22;66589;47.458;9.644;2023-03-01T07:53:30;3.60;69.40
38936;DHT22;66589;47.458;9.644;2023-03-01T07:56:11;3.60;69.40
38936;DHT22;66589;47.458;9.644;2023-03-01T07:58:38;3.60;69.30
38936;DHT22;66589;47.458;9.644;2023-03-01T08:01:09;3.60;69.80
38936;DHT22;66589;47.458;9.644;2023-03-01T08:03:36;3.60;69.10
38936;DHT22;66589;47.458;9.644;2023-03-01T08:06:04;3.70;70.00
38936;DHT22;66589;47.458;9.644;2023-03-01T08:08:30;3.70;69.40
38936;DHT22;66589;47.458;9.644;2023-03-01T08:10:57;3.70;69.00
38936;DHT22;66589;47.458;9.644;2023-03-01T08:13:23;3.80;68.90
38936;DHT22;66589;47.458;9.644;2023-03-01T08:15:49;3.90;68.80
38936;DHT22;66589;47.458;9.644;2023-03-01T08:18:19;3.90;68.60
38936;DHT22;66589;47.458;9.644;2023-03-01T08:20:45;4.00;68.90
38936;DHT22;66589;47.458;9.644;2023-03-01T08:23:11;4.00;68.80
38936;DHT22;66589;47.458;9.644;2023-03-01T08:25:37;4.00;68.60
38936;DHT22;66589;47.458;9.644;2023-03-01T08:28:04;4.20;68.40
38936;DHT22;66589;47.458;9.644;2023-03-01T08:30:29;4.10;68.80
38936;DHT22;66589;47.458;9.644;2023-03-01T08:32:55;4.20;68.30
38936;DHT22;66589;47.458;9.644;2023-03-01T08:35:21;4.30;67.40
38936;DHT22;66589;47.458;9.644;2023-03-01T08:37:47;4.30;67.70
38936;DHT22;66589;47.458;9.644;2023-03-01T08:40:13;4.40;67.30
38936;DHT22;66589;47.458;9.644;2023-03-01T08:42:40;4.40;67.40
38936;DHT22;66589;47.458;9.644;2023-03-01T08:45:07;4.50;66.80
38936;DHT22;66589;47.458;9.644;2023-03-01T08:47:33;4.50;66.60
38936;DHT22;66589;47.458;9.644;2023-03-01T08:49:59;4.60;66.80
38936;DHT22;66589;47.458;9.644;2023-03-01T08:52:25;4.80;66.10
38936;DHT22;66589;47.458;9.644;2023-03-01T08:54:52;4.90;65.90
38936;DHT22;66589;47.458;9.644;2023-03-01T08:57:18;5.00;65.00
38936;DHT22;66589;47.458;9.644;2023-03-01T08:59:44;5.00;65.00
38936;DHT22;66589;47.458;9.644;2023-03-01T09:02:15;5.20;65.20
38936;DHT22;66589;47.458;9.644;2023-03-01T09:04:41;5.30;65.10
38936;DHT22;66589;47.458;9.644;2023-03-01T09:07:07;5.40;64.40
38936;DHT22;66589;47.458;9.644;2023-03-01T09:09:33;5.50;64.50
38936;DHT22;66589;47.458;9.644;2023-03-01T09:11:58;5.60;63.70
38936;DHT22;66589;47.458;9.644;2023-03-01T09:14:24;5.70;63.20
38936;DHT22;66589;47.458;9.644;2023-03-01T09:16:50;5.90;62.60
38936;DHT22;66589;47.458;9.644;2023-03-01T09:19:16;6.10;61.60
38936;DHT22;66589;47.458;9.644;2023-03-01T09:21:42;6.20;61.80
38936;DHT22;66589;47.458;9.644;2023-03-01T09:24:19;6.30;61.30
38936;DHT22;66589;47.458;9.644;2023-03-01T09:26:45;6.30;61.90
38936;DHT22;66589;47.458;9.644;2023-03-01T09:29:12;6.30;61.00
38936;DHT22;66589;47.458;9.644;2023-03-01T09:31:38;6.30;61.50
38936;DHT22;66589;47.458;9.644;2023-03-01T09:34:04;6.30;60.90
38936;DHT22;66589;47.458;9.644;2023-03-01T09:36:30;6.20;61.00
38936;DHT22;66589;47.458;9.644;2023-03-01T09:38:57;6.20;61.20
38936;DHT22;66589;47.458;9.644;2023-03-01T09:41:43;6.30;61.80
38936;DHT22;66589;47.458;9.644;2023-03-01T09:46:53;6.00;61.80
38936;DHT22;66589;47.458;9.644;2023-03-01T09:49:22;6.10;61.60
38936;DHT22;66589;47.458;9.644;2023-03-01T09:54:27;6.20;63.40
38936;DHT22;66589;47.458;9.644;2023-03-01T09:57:26;6.40;61.50
38936;DHT22;66589;47.458;9.644;2023-03-01T10:02:39;6.80;60.20
38936;DHT22;66589;47.458;9.644;2023-03-01T10:05:19;7.00;60.60
38936;DHT22;66589;47.458;9.644;2023-03-01T10:10:28;7.30;58.70
38936;DHT22;66589;47.458;9.644;2023-03-01T10:12:57;7.20;58.50
38936;DHT22;66589;47.458;9.644;2023-03-01T10:15:38;7.30;59.30
38936;DHT22;66589;47.458;9.644;2023-03-01T10:18:18;7.40;60.40
38936;DHT22;66589;47.458;9.644;2023-03-01T10:20:58;7.90;59.20
38936;DHT22;66589;47.458;9.644;2023-03-01T10:23:26;8.00;57.40
38936;DHT22;66589;47.458;9.644;2023-03-01T10:26:15;7.70;57.30
38936;DHT22;66589;47.458;9.644;2023-03-01T10:31:20;7.30;58.20
38936;DHT22;66589;47.458;9.644;2023-03-01T10:33:48;7.50;59.60
38936;DHT22;66589;47.458;9.644;2023-03-01T10:36:17;7.70;57.60
38936;DHT22;66589;47.458;9.644;2023-03-01T10:38:56;7.70;57.50
38936;DHT22;66589;47.458;9.644;2023-03-01T10:41:25;7.90;57.20
38936;DHT22;66589;47.458;9.644;2023-03-01T10:43:53;8.20;56.50
38936;DHT22;66589;47.458;9.644;2023-03-01T10:46:33;8.40;56.70
38936;DHT22;66589;47.458;9.644;2023-03-01T10:49:21;8.60;55.60
38936;DHT22;66589;47.458;9.644;2023-03-01T10:51:50;9.10;55.30
38936;DHT22;66589;47.458;9.644;2023-03-01T10:54:33;9.30;55.00
38936;DHT22;66589;47.458;9.644;2023-03-01T10:57:01;9.30;54.00
38936;DHT22;66589;47.458;9.644;2023-03-01T10:59:31;9.10;55.10
38936;DHT22;66589;47.458;9.644;2023-03-01T11:02:28;9.10;54.90
38936;DHT22;66589;47.458;9.644;2023-03-01T11:04:57;8.90;55.70
38936;DHT22;66589;47.458;9.644;2023-03-01T11:07:23;8.90;55.20
38936;DHT22;66589;47.458;9.644;2023-03-01T11:09:49;8.80;55.10
38936;DHT22;66589;47.458;9.644;2023-03-01T11:12:16;8.70;55.60
38936;DHT22;66589;47.458;9.644;2023-03-01T11:14:54;8.60;55.30
38936;DHT22;66589;47.458;9.644;2023-03-01T11:17:27;8.50;55.40
38936;DHT22;66589;47.458;9.644;2023-03-01T11:20:17;8.50;55.60
38936;DHT22;66589;47.458;9.644;2023-03-01T11:22:52;8.60;55.50
38936;DHT22;66589;47.458;9.644;2023-03-01T11:25:23;8.70;56.30
38936;DHT22;66589;47.458;9.644;2023-03-01T11:27:49;8.80;55.30
38936;DHT22;66589;47.458;9.644;2023-03-01T11:30:23;8.90;56.80
38936;DHT22;66589;47.458;9.644;2023-03-01T11:35:19;8.80;57.00
38936;DHT22;66589;47.458;9.644;2023-03-01T11:40:26;8.60;58.50
38936;DHT22;66589;47.458;9.644;2023-03-01T12:08:04;8.90;58.20
38936;DHT22;66589;47.458;9.644;2023-03-01T12:20:58;8.90;59.60
38936;DHT22;66589;47.458;9.644;2023-03-01T12:28:43;9.30;56.50
38936;DHT22;66589;47.458;9.644;2023-03-01T12:38:13;9.40;57.50
38936;DHT22;66589;47.458;9.644;2023-03-01T12:49:25;9.60;58.30
38936;DHT22;66589;47.458;9.644;2023-03-01T12:54:37;9.70;56.70
38936;DHT22;66589;47.458;9.644;2023-03-01T13:02:27;9.30;59.20
38936;DHT22;66589;47.458;9.644;2023-03-01T13:07:41;9.10;58.40
38936;DHT22;66589;47.458;9.644;2023-03-01T13:10:34;9.00;59.10
38936;DHT22;66589;47.458;9.644;2023-03-01T13:15:38;8.90;59.20
38936;DHT22;66589;47.458;9.644;2023-03-01T13:20:48;8.80;58.30
38936;DHT22;66589;47.458;9.644;2023-03-01T13:33:47;8.30;59.90
38936;DHT22;66589;47.458;9.644;2023-03-01T13:46:44;8.30;58.50
38936;DHT22;66589;47.458;9.644;2023-03-01T13:49:16;8.40;58.90
38936;DHT22;66589;47.458;9.644;2023-03-01T13:51:46;8.50;59.60
38936;DHT22;66589;47.458;9.644;2023-03-01T13:54:14;8.60;59.40
38936;DHT22;66589;47.458;9.644;2023-03-01T13:56:41;8.60;58.20
38936;DHT22;66589;47.458;9.644;2023-03-01T13:59:21;8.60;57.70
38936;DHT22;66589;47.458;9.644;2023-03-01T14:01:58;8.60;57.90
38936;DHT22;66589;47.458;9.644;2023-03-01T14:04:29;8.60;59.40
38936;DHT22;66589;47.458;9.644;2023-03-01T14:07:32;8.50;59.80
38936;DHT22;66589;47.458;9.644;2023-03-01T14:10:01;8.30;60.20
38936;DHT22;66589;47.458;9.644;2023-03-01T14:12:51;8.40;59.40
38936;DHT22;66589;47.458;9.644;2023-03-01T14:15:19;8.40;58.70
38936;DHT22;66589;47.458;9.644;2023-03-01T14:18:14;8.30;59.80
38936;DHT22;66589;47.458;9.644;2023-03-01T14:20:44;8.30;59.10
38936;DHT22;66589;47.458;9.644;2023-03-01T14:23:20;8.00;59.60
38936;DHT22;66589;47.458;9.644;2023-03-01T14:25:52;8.10;62.30
38936;DHT22;66589;47.458;9.644;2023-03-01T14:28:38;8.10;65.30
38936;DHT22;66589;47.458;9.644;2023-03-01T14:33:56;8.20;62.20
38936;DHT22;66589;47.458;9.644;2023-03-01T14:36:30;8.00;60.40
38936;DHT22;66589;47.458;9.644;2023-03-01T14:38:56;7.90;61.80
38936;DHT22;66589;47.458;9.644;2023-03-01T14:41:34;7.60;61.70
38936;DHT22;66589;47.458;9.644;2023-03-01T14:44:06;7.50;62.00
38936;DHT22;66589;47.458;9.644;2023-03-01T14:46:40;7.40;62.10
38936;DHT22;66589;47.458;9.644;2023-03-01T14:51:43;7.40;62.10
38936;DHT22;66589;47.458;9.644;2023-03-01T14:54:24;7.50;62.20
38936;DHT22;66589;47.458;9.644;2023-03-01T14:56:52;7.40;62.40
38936;DHT22;66589;47.458;9.644;2023-03-01T14:59:24;7.40;62.20
38936;DHT22;66589;47.458;9.644;2023-03-01T15:01:51;7.20;62.60
38936;DHT22;66589;47.458;9.644;2023-03-01T15:04:19;7.20;62.50
38936;DHT22;66589;47.458;9.644;2023-03-01T15:06:49;7.10;63.20
38936;DHT22;66589;47.458;9.644;2023-03-01T15:09:16;7.00;63.40
38936;DHT22;66589;47.458;9.644;2023-03-01T15:11:43;7.00;63.80
38936;DHT22;66589;47.458;9.644;2023-03-01T15:14:43;7.00;63.60
38936;DHT22;66589;47.458;9.644;2023-03-01T15:17:32;6.90;63.80
38936;DHT22;66589;47.458;9.644;2023-03-01T15:19:59;6.70;64.20
38936;DHT22;66589;47.458;9.644;2023-03-01T15:22:26;6.70;64.70
38936;DHT22;66589;47.458;9.644;2023-03-01T15:24:53;6.60;64.80
38936;DHT22;66589;47.458;9.644;2023-03-01T15:27:24;6.60;65.40
38936;DHT22;66589;47.458;9.644;2023-03-01T15:29:57;6.50;67.20
38936;DHT22;66589;47.458;9.644;2023-03-01T15:32:33;6.30;66.70
38936;DHT22;66589;47.458;9.644;2023-03-01T15:35:01;6.20;67.00
38936;DHT22;66589;47.458;9.644;2023-03-01T15:37:48;6.20;66.90
38936;DHT22;66589;47.458;9.644;2023-03-01T15:40:21;6.20;67.30
38936;DHT22;66589;47.458;9.644;2023-03-01T15:42:50;6.10;67.70
38936;DHT22;66589;47.458;9.644;2023-03-01T15:47:48;6.10;67.60
38936;DHT22;66589;47.458;9.644;2023-03-01T15:50:34;6.00;68.10
38936;DHT22;66589;47.458;9.644;2023-03-01T15:53:05;5.90;68.60
38936;DHT22;66589;47.458;9.644;2023-03-01T15:55:32;5.80;68.90
38936;DHT22;66589;47.458;9.644;2023-03-01T15:58:00;5.80;69.00
38936;DHT22;66589;47.458;9.644;2023-03-01T16:00:27;5.70;69.00
38936;DHT22;66589;47.458;9.644;2023-03-01T16:02:54;5.70;69.70
38936;DHT22;66589;47.458;9.644;2023-03-01T16:05:23;5.60;69.60
38936;DHT22;66589;47.458;9.644;2023-03-01T16:07:49;5.60;69.40
38936;DHT22;66589;47.458;9.644;2023-03-01T16:10:16;5.60;69.20
38936;DHT22;66589;47.458;9.644;2023-03-01T16:12:41;5.70;70.00
38936;DHT22;66589;47.458;9.644;2023-03-01T16:15:29;5.60;69.70
38936;DHT22;66589;47.458;9.644;2023-03-01T16:17:55;5.60;69.50
38936;DHT22;66589;47.458;9.644;2023-03-01T16:20:21;5.50;70.20
38936;DHT22;66589;47.458;9.644;2023-03-01T16:22:47;5.50;70.30
38936;DHT22;66589;47.458;9.644;2023-03-01T16:25:16;5.40;70.10
38936;DHT22;66589;47.458;9.644;2023-03-01T16:27:43;5.40;70.10
38936;DHT22;66589;47.458;9.644;2023-03-01T16:30:09;5.30;70.60
38936;DHT22;66589;47.458;9.644;2023-03-01T16:32:39;5.30;70.70
38936;DHT22;66589;47.458;9.644;2023-03-01T16:35:06;5.30;73.50
38936;DHT22;66589;47.458;9.644;2023-03-01T16:37:33;5.30;70.80
38936;DHT22;66589;47.458;9.644;2023-03-01T16:39:59;5.30;70.30
38936;DHT22;66589;47.458;9.644;2023-03-01T16:42:25;5.30;70.80
38936;DHT22;66589;47.458;9.644;2023-03-01T16:44:55;5.20;70.50
38936;DHT22;66589;47.458;9.644;2023-03-01T16:47:21;5.30;73.50
38936;DHT22;66589;47.458;9.644;2023-03-01T16:49:47;5.40;74.80
38936;DHT22;66589;47.458;9.644;2023-03-01T16:52:16;5.40;73.80
38936;DHT22;66589;47.458;9.644;2023-03-01T16:54:42;5.40;71.00
38936;DHT22;66589;47.458;9.644;2023-03-01T16:57:07;5.30;70.90
38936;DHT22;66589;47.458;9.644;2023-03-01T16:59:33;5.30;71.40
38936;DHT22;66589;47.458;9.644;2023-03-01T17:01:59;5.30;71.30
38936;DHT22;66589;47.458;9.644;2023-03-01T17:04:24;5.20;71.70
38936;DHT22;66589;47.458;9.644;2023-03-01T17:06:50;5.20;72.20
38936;DHT22;66589;47.458;9.644;2023-03-01T17:09:16;5.10;72.60
38936;DHT22;66589;47.458;9.644;2023-03-01T17:11:42;5.10;72.30
38936;DHT22;66589;47.458;9.644;2023-03-01T17:14:08;5.10;72.30
38936;DHT22;66589;47.458;9.644;2023-03-01T17:16:34;5.20;72.40
38936;DHT22;66589;47.458;9.644;2023-03-01T17:19:00;5.10;72.40
38936;DHT22;66589;47.458;9.644;2023-03-01T17:21:26;5.10;72.60
38936;DHT22;66589;47.458;9.644;2023-03-01T17:23:55;5.10;72.60
38936;DHT22;66589;47.458;9.644;2023-03-01T17:26:21;5.10;72.80
38936;DHT22;66589;47.458;9.644;2023-03-01T17:28:47;5.10;72.80
38936;DHT22;66589;47.458;9.644;2023-03-01T17:31:17;5.00;72.80
38936;DHT22;66589;47.458;9.644;2023-03-01T17:33:43;5.00;72.50
38936;DHT22;66589;47.458;9.644;2023-03-01T17:36:09;5.00;72.60
38936;DHT22;66589;47.458;9.644;2023-03-01T17:38:35;4.90;72.80
38936;DHT22;66589;47.458;9.644;2023-03-01T17:41:02;4.90;72.90
38936;DHT22;66589;47.458;9.644;2023-03-01T17:43:28;4.90;73.10
38936;DHT22;66589;47.458;9.644;2023-03-01T17:45:55;4.90;73.00
38936;DHT22;66589;47.458;9.644;2023-03-01T17:48:21;4.80;73.00
38936;DHT22;66589;47.458;9.644;2023-03-01T17:50:47;4.80;73.20
38936;DHT22;66589;47.458;9.644;2023-03-01T17:53:13;4.80;73.10
38936;DHT22;66589;47.458;9.644;2023-03-01T17:55:40;4.80;73.50
38936;DHT22;66589;47.458;9.644;2023-03-01T17:58:07;4.90;73.50
38936;DHT22;66589;47.458;9.644;2023-03-01T18:00:34;4.90;73.40
38936;DHT22;66589;47.458;9.644;2023-03-01T18:02:59;4.90;73.30
38936;DHT22;66589;47.458;9.644;2023-03-01T18:05:30;5.00;73.50
38936;DHT22;66589;47.458;9.644;2023-03-01T18:07:56;5.00;73.20